Time;durP1;ratioP1;P1;durP2;ratioP2;P2;SDS_P1;SDS_P2;PMS_P1;PMS_P2;Temp;Humidity;BMP_temperature;BMP_pressure;BME280_temperature;BME280_humidity;BME280_pressure;Samples;Min_cycle;Max_cycle;Signal;HPM_P1;HPM_P2
2023/04/08 00:00:40;;;;;;;;;;;;;;;2.86;100.00;100618.66;5566803;32;34894;-68
2023/04/08 00:03:43;;;;;;;;;;;;;;;3.05;100.00;100626.81;5552681;32;34099;-68
2023/04/08 00:06:46;;;;;;;;;;;;;;;2.90;100.00;100620.13;5552527;32;34213;-68
2023/04/08 00:09:49;;;;;;;;;;;;;;;2.83;100.00;100616.28;5566199;32;35186;-68
2023/04/08 00:12:51;;;;;;;;;;;;;;;2.78;100.00;100615.78;5566198;32;34566;-68
2023/04/08 00:15:54;;;;;;;;;;;;;;;2.92;100.00;100620.00;5554526;32;34765;-69
2023/04/08 00:18:57;;;;;;;;;;;;;;;2.95;100.00;100615.34;5555165;32;34283;-68
2023/04/08 00:22:00;;;;;;;;;;;;;;;2.86;100.00;100609.94;5569042;32;34823;-68
2023/04/08 00:25:05;;;;;;;;;;;;;;;2.88;100.00;100618.56;5568863;32;33763;-69
2023/04/08 00:28:08;;;;;;;;;;;;;;;2.89;100.00;100628.09;5568782;32;34816;-68
2023/04/08 00:31:10;;;;;;;;;;;;;;;2.81;100.00;100619.97;5568840;32;34262;-68
2023/04/08 00:34:13;;;;;;;;;;;;;;;2.79;100.00;100617.44;5568638;32;34846;-68
2023/04/08 00:37:16;;;;;;;;;;;;;;;2.84;100.00;100620.56;5568781;32;34345;-68
2023/04/08 00:40:19;;;;;;;;;;;;;;;2.89;100.00;100615.00;5568638;32;34221;-68
2023/04/08 00:43:21;;;;;;;;;;;;;;;2.92;100.00;100623.44;5568398;32;34296;-69
2023/04/08 00:46:25;;;;;;;;;;;;;;;2.86;100.00;100620.44;5568682;32;34626;-68
2023/04/08 00:49:30;;;;;;;;;;;;;;;2.89;100.00;100620.22;5568532;32;34061;-69
2023/04/08 00:52:32;;;;;;;;;;;;;;;2.88;100.00;100623.78;5568547;32;34116;-69
2023/04/08 00:55:35;;;;;;;;;;;;;;;2.82;100.00;100622.44;5568488;32;34331;-68
2023/04/08 00:58:38;;;;;;;;;;;;;;;2.82;100.00;100622.44;5568569;32;34230;-68
2023/04/08 01:01:43;;;;;;;;;;;;;;;2.89;100.00;100625.47;5568637;32;34883;-68
2023/04/08 01:05:04;;;;;;;;;;;;;;;2.95;100.00;100627.66;5568628;32;33744;-68
2023/04/08 01:08:07;;;;;;;;;;;;;;;3.07;100.00;100629.34;5568469;32;34246;-68
2023/04/08 01:11:12;;;;;;;;;;;;;;;3.10;100.00;100625.69;5568462;32;34039;-68
2023/04/08 01:14:16;;;;;;;;;;;;;;;3.09;100.00;100627.47;5568648;32;34836;-69
2023/04/08 01:17:20;;;;;;;;;;;;;;;2.93;100.00;100625.12;5568465;32;34430;-69
2023/04/08 01:20:24;;;;;;;;;;;;;;;2.97;100.00;100625.72;5568614;32;35410;-68
2023/04/08 01:23:30;;;;;;;;;;;;;;;3.05;100.00;100628.59;5568300;32;34196;-69
2023/04/08 01:26:32;;;;;;;;;;;;;;;3.03;100.00;100626.13;5567180;32;34215;-68
2023/04/08 01:29:36;;;;;;;;;;;;;;;2.92;100.00;100627.84;5568346;32;34350;-69
2023/04/08 01:32:41;;;;;;;;;;;;;;;2.98;100.00;100630.88;5568282;32;35659;-68
2023/04/08 01:35:44;;;;;;;;;;;;;;;2.98;100.00;100632.66;5570896;31;34346;-69
2023/04/08 01:38:48;;;;;;;;;;;;;;;2.98;100.00;100628.25;5580124;31;35135;-68
2023/04/08 01:41:52;;;;;;;;;;;;;;;2.94;100.00;100624.19;5574040;31;34024;-69
2023/04/08 01:44:56;;;;;;;;;;;;;;;2.96;100.00;100626.66;5587767;31;34733;-69
2023/04/08 01:47:59;;;;;;;;;;;;;;;2.93;100.00;100622.50;5587785;31;34408;-69
2023/04/08 01:51:03;;;;;;;;;;;;;;;2.95;100.00;100619.78;5574171;31;34579;-68
2023/04/08 01:54:06;;;;;;;;;;;;;;;2.98;100.00;100622.16;5573786;31;34783;-68
2023/04/08 01:57:10;;;;;;;;;;;;;;;3.00;100.00;100620.28;5587741;31;34108;-68
2023/04/08 02:00:14;;;;;;;;;;;;;;;3.01;100.00;100621.94;5587608;31;34206;-69
2023/04/08 02:03:22;;;;;;;;;;;;;;;2.90;100.00;100617.50;5587593;31;34587;-69
2023/04/08 02:06:26;;;;;;;;;;;;;;;2.81;100.00;100625.22;5587943;31;34166;-69
2023/04/08 02:09:29;;;;;;;;;;;;;;;2.86;100.00;100616.03;5587570;31;34183;-70
2023/04/08 02:12:32;;;;;;;;;;;;;;;2.77;100.00;100627.19;5587671;31;34000;-68
2023/04/08 02:15:35;;;;;;;;;;;;;;;2.76;100.00;100620.28;5587472;31;32673;-70
2023/04/08 02:18:41;;;;;;;;;;;;;;;2.78;100.00;100621.00;5587619;31;34664;-70
2023/04/08 02:21:49;;;;;;;;;;;;;;;2.76;100.00;100616.84;5587349;31;34358;-70
2023/04/08 02:24:52;;;;;;;;;;;;;;;2.68;100.00;100620.00;5573575;31;34285;-70
2023/04/08 02:27:55;;;;;;;;;;;;;;;2.70;100.00;100620.75;5587386;31;34186;-69
2023/04/08 02:30:59;;;;;;;;;;;;;;;2.80;100.00;100615.66;5573602;31;34609;-69
2023/04/08 02:34:03;;;;;;;;;;;;;;;2.86;100.00;100615.19;5573313;31;34346;-69
2023/04/08 02:37:07;;;;;;;;;;;;;;;2.76;100.00;100615.03;5586733;31;34442;-69
2023/04/08 02:40:22;;;;;;;;;;;;;;;2.75;100.00;100615.16;5587624;31;34352;-69
2023/04/08 02:43:30;;;;;;;;;;;;;;;2.76;100.00;100614.22;5587031;31;34780;-70
2023/04/08 02:46:33;;;;;;;;;;;;;;;2.82;100.00;100614.59;5587238;31;35610;-69
2023/04/08 02:49:37;;;;;;;;;;;;;;;2.77;100.00;100621.94;5587199;31;34368;-70
2023/04/08 02:52:39;;;;;;;;;;;;;;;2.77;100.00;100616.72;5587028;31;34251;-69
2023/04/08 02:55:42;;;;;;;;;;;;;;;2.82;100.00;100619.00;5587327;31;33990;-69
2023/04/08 02:58:44;;;;;;;;;;;;;;;2.86;100.00;100617.81;5587011;31;34848;-69
2023/04/08 03:01:48;;;;;;;;;;;;;;;2.95;100.00;100614.53;5573226;31;34335;-69
2023/04/08 03:04:50;;;;;;;;;;;;;;;2.83;100.00;100621.50;5586946;31;34533;-70
2023/04/08 03:07:53;;;;;;;;;;;;;;;2.72;100.00;100613.59;5587013;31;34624;-70
2023/04/08 03:10:58;;;;;;;;;;;;;;;2.75;100.00;100621.25;5586915;31;34791;-69
2023/04/08 03:14:01;;;;;;;;;;;;;;;2.63;100.00;100614.25;5586720;31;34226;-69
2023/04/08 03:17:03;;;;;;;;;;;;;;;2.62;100.00;100618.66;5586718;31;34576;-69
2023/04/08 03:20:06;;;;;;;;;;;;;;;2.60;100.00;100617.97;5572922;31;34780;-69
2023/04/08 03:23:10;;;;;;;;;;;;;;;2.58;100.00;100622.47;5572805;31;34413;-69
2023/04/08 03:26:13;;;;;;;;;;;;;;;2.57;100.00;100626.00;5586851;31;34212;-69
2023/04/08 03:29:15;;;;;;;;;;;;;;;2.62;100.00;100625.69;5586597;31;34713;-69
2023/04/08 03:32:18;;;;;;;;;;;;;;;2.60;100.00;100632.84;5586660;31;34277;-70
2023/04/08 03:35:20;;;;;;;;;;;;;;;2.60;100.00;100632.84;5586722;31;34168;-70
2023/04/08 03:38:23;;;;;;;;;;;;;;;2.56;100.00;100634.00;5586454;31;34679;-70
2023/04/08 03:41:27;;;;;;;;;;;;;;;2.53;100.00;100632.44;5586451;31;34617;-70
2023/04/08 03:44:30;;;;;;;;;;;;;;;2.48;100.00;100628.47;5586498;31;34683;-70
2023/04/08 03:47:32;;;;;;;;;;;;;;;2.47;100.00;100639.91;5586265;31;34520;-70
2023/04/08 03:50:36;;;;;;;;;;;;;;;2.45;100.00;100640.00;5574759;31;34580;-70
2023/04/08 03:53:39;;;;;;;;;;;;;;;2.49;100.00;100638.00;5588654;31;34152;-69
2023/04/08 03:56:42;;;;;;;;;;;;;;;2.49;100.00;100638.00;5588579;31;34891;-70
2023/04/08 03:59:44;;;;;;;;;;;;;;;2.48;100.00;100647.63;5574940;31;34231;-70
2023/04/08 04:02:47;;;;;;;;;;;;;;;2.46;100.00;100652.16;5588639;31;34181;-70
2023/04/08 04:05:50;;;;;;;;;;;;;;;2.43;100.00;100654.13;5588897;31;34158;-69
2023/04/08 04:08:53;;;;;;;;;;;;;;;2.43;100.00;100652.34;5588663;31;34556;-69
2023/04/08 04:11:56;;;;;;;;;;;;;;;2.60;100.00;100667.72;5588543;31;34134;-69
2023/04/08 04:14:58;;;;;;;;;;;;;;;2.48;100.00;100659.88;5588479;31;34210;-70
2023/04/08 04:18:01;;;;;;;;;;;;;;;2.51;100.00;100662.31;5577606;31;34350;-69
2023/04/08 04:21:04;;;;;;;;;;;;;;;2.53;100.00;100663.00;5569336;32;34458;-69
2023/04/08 04:24:07;;;;;;;;;;;;;;;2.57;100.00;100662.69;5568792;32;34543;-70
2023/04/08 04:27:09;;;;;;;;;;;;;;;2.55;100.00;100659.34;5568660;32;33968;-70
2023/04/08 04:30:14;;;;;;;;;;;;;;;2.48;100.00;100659.88;5568789;32;34209;-69
2023/04/08 04:33:17;;;;;;;;;;;;;;;2.46;100.00;100669.66;5568699;32;34708;-70
2023/04/08 04:36:19;;;;;;;;;;;;;;;2.49;100.00;100667.63;5568947;32;34802;-69
2023/04/08 04:39:21;;;;;;;;;;;;;;;2.51;100.00;100664.91;5568836;32;34676;-70
2023/04/08 04:42:24;;;;;;;;;;;;;;;2.54;100.00;100669.94;5568519;32;34647;-70
2023/04/08 04:45:27;;;;;;;;;;;;;;;2.52;100.00;100677.03;5568047;32;34728;-69
2023/04/08 04:48:29;;;;;;;;;;;;;;;2.50;100.00;100668.47;5574366;31;34850;-69
2023/04/08 04:51:32;;;;;;;;;;;;;;;2.57;100.00;100674.94;5588401;31;34255;-69
2023/04/08 04:54:35;;;;;;;;;;;;;;;2.60;100.00;100670.34;5587952;31;34174;-69
2023/04/08 04:57:37;;;;;;;;;;;;;;;2.62;100.00;100678.06;5581813;31;34028;-69
2023/04/08 05:00:41;;;;;;;;;;;;;;;2.70;100.00;100685.38;5554273;32;33825;-69
2023/04/08 05:03:43;;;;;;;;;;;;;;;2.68;100.00;100682.88;5568465;32;34809;-69
2023/04/08 05:06:46;;;;;;;;;;;;;;;2.75;100.00;100678.03;5568702;31;34100;-70
2023/04/08 05:09:48;;;;;;;;;;;;;;;2.67;100.00;100682.97;5568323;32;34786;-69
2023/04/08 05:12:51;;;;;;;;;;;;;;;2.70;100.00;100682.78;5568399;32;34198;-69
2023/04/08 05:15:53;;;;;;;;;;;;;;;2.68;100.00;100685.50;5568369;32;33683;-69
2023/04/08 05:18:56;;;;;;;;;;;;;;;2.75;100.00;100686.75;5568259;32;33971;-70
2023/04/08 05:21:59;;;;;;;;;;;;;;;2.74;100.00;100689.47;5568639;32;34461;-68
2023/04/08 05:25:01;;;;;;;;;;;;;;;2.73;100.00;100691.22;5567108;31;35675;-70
2023/04/08 05:28:04;;;;;;;;;;;;;;;2.81;100.00;100691.50;5567182;32;34247;-69
2023/04/08 05:31:07;;;;;;;;;;;;;;;2.77;100.00;100697.09;5568074;32;34634;-70
2023/04/08 05:34:10;;;;;;;;;;;;;;;2.85;100.00;100703.47;5573390;31;34098;-70
2023/04/08 05:37:12;;;;;;;;;;;;;;;2.80;100.00;100702.97;5587245;31;34516;-70
2023/04/08 05:40:15;;;;;;;;;;;;;;;2.76;100.00;100705.91;5584021;31;34024;-69
2023/04/08 05:43:18;;;;;;;;;;;;;;;2.74;100.00;100703.41;5587560;31;34813;-71
2023/04/08 05:46:20;;;;;;;;;;;;;;;2.81;100.00;100704.63;5587942;31;34073;-70
2023/04/08 05:49:23;;;;;;;;;;;;;;;2.93;100.00;100710.75;5587714;31;34185;-70
2023/04/08 05:52:27;;;;;;;;;;;;;;;2.97;100.00;100706.97;5587625;31;34791;-70
2023/04/08 05:55:30;;;;;;;;;;;;;;;2.96;100.00;100711.37;5587428;31;34339;-70
2023/04/08 05:58:32;;;;;;;;;;;;;;;2.93;100.00;100703.75;5587578;31;34780;-70
2023/04/08 06:01:35;;;;;;;;;;;;;;;3.00;100.00;100712.81;5587081;31;34230;-70
2023/04/08 06:04:38;;;;;;;;;;;;;;;3.02;100.00;100716.19;5583008;31;34282;-70
2023/04/08 06:07:40;;;;;;;;;;;;;;;3.13;100.00;100719.81;5587380;31;34226;-70
2023/04/08 06:10:50;;;;;;;;;;;;;;;3.17;100.00;100716.84;5587443;31;34047;-70
2023/04/08 06:13:52;;;;;;;;;;;;;;;3.11;100.00;100724.31;5586455;31;34476;-70
2023/04/08 06:16:56;;;;;;;;;;;;;;;3.13;100.00;100728.50;5582896;31;34865;-69
2023/04/08 06:20:00;;;;;;;;;;;;;;;3.06;100.00;100727.25;5567624;32;34675;-69
2023/04/08 06:23:03;;;;;;;;;;;;;;;3.07;100.00;100726.31;5567833;32;34065;-69
2023/04/08 06:26:06;;;;;;;;;;;;;;;3.16;100.00;100733.50;5567433;32;34377;-69
2023/04/08 06:29:08;;;;;;;;;;;;;;;3.08;100.00;100733.25;5567666;32;34134;-69
2023/04/08 06:32:11;;;;;;;;;;;;;;;3.12;100.00;100734.69;5566465;32;34246;-69
2023/04/08 06:35:14;;;;;;;;;;;;;;;3.20;100.00;100741.97;5583396;31;34725;-69
2023/04/08 06:38:17;;;;;;;;;;;;;;;3.20;100.00;100739.34;5581545;31;33985;-69
2023/04/08 06:41:20;;;;;;;;;;;;;;;3.30;100.00;100743.81;5553791;32;34223;-69
2023/04/08 06:44:23;;;;;;;;;;;;;;;3.30;100.00;100741.19;5567405;32;34250;-69
2023/04/08 06:47:25;;;;;;;;;;;;;;;3.20;100.00;100741.97;5567744;32;33877;-70
2023/04/08 06:50:28;;;;;;;;;;;;;;;3.19;100.00;100745.56;5567282;32;33744;-69
2023/04/08 06:53:32;;;;;;;;;;;;;;;3.06;100.00;100754.31;5553609;32;34817;-69
2023/04/08 06:56:35;;;;;;;;;;;;;;;3.13;100.00;100754.72;5566510;31;32688;-70
2023/04/08 06:59:37;;;;;;;;;;;;;;;3.35;100.00;100756.59;5573104;31;33965;-69
2023/04/08 07:02:40;;;;;;;;;;;;;;;3.22;100.00;100759.28;5586788;31;34762;-69
2023/04/08 07:05:43;;;;;;;;;;;;;;;3.19;100.00;100759.53;5573165;31;34036;-69
2023/04/08 07:08:46;;;;;;;;;;;;;;;3.16;100.00;100758.87;5586897;31;34226;-69
2023/04/08 07:11:48;;;;;;;;;;;;;;;3.32;100.00;100762.06;5586794;31;34077;-70
2023/04/08 07:14:51;;;;;;;;;;;;;;;3.50;100.00;100758.94;5586608;31;34268;-69
2023/04/08 07:17:58;;;;;;;;;;;;;;;3.54;100.00;100758.69;5586744;31;34143;-69
2023/04/08 07:21:01;;;;;;;;;;;;;;;3.45;100.00;100761.06;5586619;31;34662;-70
2023/04/08 07:24:03;;;;;;;;;;;;;;;3.65;100.00;100767.47;5586721;31;34088;-69
2023/04/08 07:27:07;;;;;;;;;;;;;;;3.64;100.00;100770.19;5586670;31;34521;-70
2023/04/08 07:30:10;;;;;;;;;;;;;;;3.59;100.00;100769.69;5586889;31;33986;-69
2023/04/08 07:33:14;;;;;;;;;;;;;;;3.35;100.00;100780.19;5586436;31;34175;-69
2023/04/08 07:36:17;;;;;;;;;;;;;;;3.44;100.00;100784.75;5568141;31;34214;-69
2023/04/08 07:39:20;;;;;;;;;;;;;;;3.40;100.00;100781.53;5573843;31;34121;-69
2023/04/08 07:42:22;;;;;;;;;;;;;;;3.36;100.00;100792.38;5566170;32;34171;-69
2023/04/08 07:45:25;;;;;;;;;;;;;;;3.44;100.00;100795.25;5566396;32;34347;-69
2023/04/08 07:48:28;;;;;;;;;;;;;;;3.59;100.00;100801.16;5565361;32;34386;-70
2023/04/08 07:51:31;;;;;;;;;;;;;;;3.53;100.00;100805.09;5565479;31;33592;-70
2023/04/08 07:54:34;;;;;;;;;;;;;;;3.56;100.00;100806.66;5557891;31;34243;-70
2023/04/08 07:57:36;;;;;;;;;;;;;;;3.70;100.00;100816.97;5576481;31;34839;-70
2023/04/08 08:00:40;;;;;;;;;;;;;;;3.57;100.00;100816.19;5566673;32;34100;-70
2023/04/08 08:03:43;;;;;;;;;;;;;;;3.49;100.00;100814.97;5566199;32;35174;-69
2023/04/08 08:06:46;;;;;;;;;;;;;;;3.50;100.00;100814.00;5565841;32;34223;-70
2023/04/08 08:09:49;;;;;;;;;;;;;;;3.67;100.00;100825.91;5566478;32;34345;-70
2023/04/08 08:12:51;;;;;;;;;;;;;;;3.45;100.00;100815.28;5565827;32;34075;-70
2023/04/08 08:15:54;;;;;;;;;;;;;;;3.42;100.00;100820.78;5566178;32;34094;-70
2023/04/08 08:18:57;;;;;;;;;;;;;;;3.33;100.00;100817.03;5566107;31;34838;-71
2023/04/08 08:22:00;;;;;;;;;;;;;;;3.37;100.00;100821.13;5565835;32;33984;-70
2023/04/08 08:25:03;;;;;;;;;;;;;;;3.49;100.00;100820.19;5565913;32;33926;-70
2023/04/08 08:28:06;;;;;;;;;;;;;;;3.71;100.00;100824.72;5564976;32;34357;-69
2023/04/08 08:31:09;;;;;;;;;;;;;;;3.79;100.00;100822.38;5565826;32;34843;-70
2023/04/08 08:34:11;;;;;;;;;;;;;;;3.86;100.00;100822.75;5565344;32;34595;-70
2023/04/08 08:37:14;;;;;;;;;;;;;;;3.83;100.00;100822.97;5567325;32;33835;-70
2023/04/08 08:40:18;;;;;;;;;;;;;;;3.94;100.00;100826.47;5568148;32;34251;-70
2023/04/08 08:43:20;;;;;;;;;;;;;;;3.91;100.00;100829.34;5568334;32;34365;-70
2023/04/08 08:46:23;;;;;;;;;;;;;;;3.92;100.00;100838.06;5568308;32;34130;-70
2023/04/08 08:49:25;;;;;;;;;;;;;;;4.06;100.00;100829.16;5568058;32;34118;-69
2023/04/08 08:52:28;;;;;;;;;;;;;;;3.81;100.00;100832.75;5568545;32;34624;-71
2023/04/08 08:55:32;;;;;;;;;;;;;;;3.83;100.00;100841.34;5568605;32;34678;-70
2023/04/08 08:58:55;;;;;;;;;;;;;;;3.87;100.00;100838.38;5568331;32;34126;-70
2023/04/08 09:01:57;;;;;;;;;;;;;;;4.15;100.00;100844.22;5567710;32;34818;-70
2023/04/08 09:05:03;;;;;;;;;;;;;;;4.33;100.00;100851.53;5568153;32;34909;-70
2023/04/08 09:08:21;;;;;;;;;;;;;;;4.36;100.00;100851.28;5568002;32;34073;-70
2023/04/08 09:11:24;;;;;;;;;;;;;;;4.50;100.00;100857.28;5568307;32;33182;-68
2023/04/08 09:14:27;;;;;;;;;;;;;;;4.60;100.00;100860.91;5568306;32;34187;-70
2023/04/08 09:17:32;;;;;;;;;;;;;;;4.41;100.00;100869.31;5567738;32;34150;-70
2023/04/08 09:20:34;;;;;;;;;;;;;;;4.43;100.00;100866.59;5568727;32;35049;-70
2023/04/08 09:23:41;;;;;;;;;;;;;;;4.27;100.00;100864.28;5567407;32;35344;-71
2023/04/08 09:26:45;;;;;;;;;;;;;;;4.31;100.00;100869.19;5568383;32;34792;-71
2023/04/08 09:29:47;;;;;;;;;;;;;;;4.15;100.00;100870.47;5567837;32;34868;-71
2023/04/08 09:32:52;;;;;;;;;;;;;;;4.30;100.00;100877.19;5567949;32;35244;-70
2023/04/08 09:35:57;;;;;;;;;;;;;;;4.28;100.00;100879.94;5568450;32;33611;-70
2023/04/08 09:38:59;;;;;;;;;;;;;;;4.24;100.00;100885.53;5568180;32;34118;-69
2023/04/08 09:42:07;;;;;;;;;;;;;;;4.37;100.00;100887.13;5568032;32;34285;-70
2023/04/08 09:45:10;;;;;;;;;;;;;;;4.20;100.00;100887.56;5567892;32;34232;-69
2023/04/08 09:48:26;;;;;;;;;;;;;;;4.43;100.00;100885.81;5566609;32;34846;-69
2023/04/08 09:51:32;;;;;;;;;;;;;;;4.24;100.00;100885.53;5567999;32;34034;-69
2023/04/08 09:54:34;;;;;;;;;;;;;;;4.26;100.00;100887.06;5567921;32;33880;-70
2023/04/08 09:57:43;;;;;;;;;;;;;;;4.51;100.00;100888.69;5567840;32;34820;-69
2023/04/08 10:00:51;;;;;;;;;;;;;;;4.36;100.00;100884.59;5567362;31;34338;-69
2023/04/08 10:03:56;;;;;;;;;;;;;;;4.37;100.00;100889.75;5567125;32;34904;-69
2023/04/08 10:07:03;;;;;;;;;;;;;;;4.19;100.00;100892.91;5567631;32;34755;-69
2023/04/08 10:10:08;;;;;;;;;;;;;;;4.43;100.00;100891.06;5567827;32;34001;-69
2023/04/08 10:13:10;;;;;;;;;;;;;;;4.40;100.00;100890.47;5572232;31;34335;-69
2023/04/08 10:16:20;;;;;;;;;;;;;;;4.41;100.00;100897.38;5573346;31;34382;-69
2023/04/08 10:19:40;;;;;;;;;;;;;;;4.34;100.00;100895.22;5587419;31;34198;-70
2023/04/08 10:22:49;;;;;;;;;;;;;;;4.44;100.00;100890.13;5587463;31;34439;-70
2023/04/08 10:25:51;;;;;;;;;;;;;;;4.58;100.00;100897.78;5582431;31;33850;-70
2023/04/08 10:28:54;;;;;;;;;;;;;;;4.73;100.00;100901.03;5566900;32;34026;-70
2023/04/08 10:31:56;;;;;;;;;;;;;;;4.93;100.00;100891.63;5567612;32;34348;-70
2023/04/08 10:34:59;;;;;;;;;;;;;;;4.95;100.00;100902.84;5553994;32;34169;-68
2023/04/08 10:38:02;;;;;;;;;;;;;;;4.75;100.00;100897.31;5567222;31;34144;-69
2023/04/08 10:41:04;;;;;;;;;;;;;;;4.71;100.00;100889.78;5566612;32;34174;-69
2023/04/08 10:44:25;;;;;;;;;;;;;;;5.05;100.00;100888.03;5567374;32;34182;-68
2023/04/08 10:47:28;;;;;;;;;;;;;;;5.02;100.00;100890.91;5567058;32;34585;-70
2023/04/08 10:50:32;;;;;;;;;;;;;;;5.48;100.00;100888.09;5566418;32;34231;-70
2023/04/08 10:53:35;;;;;;;;;;;;;;;5.47;100.00;100886.44;5567184;32;35223;-69
2023/04/08 10:56:52;;;;;;;;;;;;;;;5.34;100.00;100889.19;5557697;32;34234;-70
2023/04/08 10:59:55;;;;;;;;;;;;;;;5.32;100.00;100899.00;5547453;32;34216;-71
2023/04/08 11:03:01;;;;;;;;;;;;;;;4.46;100.00;100901.34;5548087;32;34994;-70
2023/04/08 11:06:04;;;;;;;;;;;;;;;4.41;100.00;100894.75;5546922;32;34791;-69
2023/04/08 11:09:07;;;;;;;;;;;;;;;4.85;100.00;100893.97;5546845;32;33683;-69
2023/04/08 11:12:10;;;;;;;;;;;;;;;5.21;100.00;100886.72;5547990;32;34487;-69
2023/04/08 11:15:13;;;;;;;;;;;;;;;5.24;100.00;100896.12;5546941;32;34325;-69
2023/04/08 11:18:16;;;;;;;;;;;;;;;5.20;100.00;100892.91;5547579;32;34212;-70
2023/04/08 11:21:21;;;;;;;;;;;;;;;5.16;100.00;100890.66;5547583;32;34789;-70
2023/04/08 11:24:23;;;;;;;;;;;;;;;4.90;100.00;100895.31;5547578;32;34296;-70
2023/04/08 11:27:26;;;;;;;;;;;;;;;4.91;100.00;100896.16;5547263;32;34245;-69
2023/04/08 11:30:32;;;;;;;;;;;;;;;5.14;100.00;100885.50;5547287;32;34230;-71
2023/04/08 11:33:35;;;;;;;;;;;;;;;5.30;100.00;100897.44;5547662;32;34293;-70
2023/04/08 11:36:39;;;;;;;;;;;;;;;5.05;100.00;100901.16;5547081;32;34035;-69
2023/04/08 11:39:42;;;;;;;;;;;;;;;4.94;100.00;100896.72;5550357;32;34818;-71
2023/04/08 11:42:45;;;;;;;;;;;;;;;5.29;100.00;100904.50;5547280;32;34139;-69
2023/04/08 11:45:48;;;;;;;;;;;;;;;5.29;100.00;100901.87;5563703;31;34176;-69
2023/04/08 11:48:58;;;;;;;;;;;;;;;5.33;100.00;100899.81;5579768;31;34877;-69
2023/04/08 11:52:01;;;;;;;;;;;;;;;5.17;100.00;100900.22;5572096;31;34092;-69
2023/04/08 11:55:04;;;;;;;;;;;;;;;5.19;100.00;100896.50;5585950;31;34840;-68
2023/04/08 11:58:06;;;;;;;;;;;;;;;5.04;100.00;100895.06;5586143;31;34188;-68
2023/04/08 12:01:09;;;;;;;;;;;;;;;5.06;100.00;100895.78;5586146;31;34140;-68
2023/04/08 12:04:12;;;;;;;;;;;;;;;5.17;100.00;100897.59;5571707;31;34970;-69
2023/04/08 12:07:14;;;;;;;;;;;;;;;5.43;100.00;100896.34;5585761;31;34504;-69
2023/04/08 12:10:17;;;;;;;;;;;;;;;5.39;100.00;100902.81;5586399;31;33908;-69
2023/04/08 12:13:20;;;;;;;;;;;;;;;5.77;100.00;100894.47;5588377;31;35655;-69
2023/04/08 12:16:23;;;;;;;;;;;;;;;5.95;100.00;100893.03;5588356;31;34403;-69
2023/04/08 12:19:25;;;;;;;;;;;;;;;5.99;100.00;100898.88;5588308;31;34356;-69
2023/04/08 12:22:28;;;;;;;;;;;;;;;5.59;100.00;100898.59;5588258;31;34508;-69
2023/04/08 12:25:30;;;;;;;;;;;;;;;5.58;100.00;100895.13;5588187;31;35127;-69
2023/04/08 12:28:34;;;;;;;;;;;;;;;5.90;100.00;100889.09;5588057;31;34045;-69
2023/04/08 12:31:36;;;;;;;;;;;;;;;6.16;100.00;100900.94;5588392;31;34410;-69
2023/04/08 12:34:40;;;;;;;;;;;;;;;6.56;100.00;100882.62;5588040;31;34947;-70
2023/04/08 12:37:42;;;;;;;;;;;;;;;6.71;100.00;100891.06;5576497;31;34887;-69
2023/04/08 12:40:45;;;;;;;;;;;;;;;6.97;100.00;100882.56;5568616;32;33984;-70
2023/04/08 12:43:51;;;;;;;;;;;;;;;7.48;100.00;100892.19;5568459;32;34210;-69
2023/04/08 12:46:53;;;;;;;;;;;;;;;7.04;100.00;100887.31;5568657;32;34716;-69
2023/04/08 12:49:56;;;;;;;;;;;;;;;7.03;100.00;100890.91;5568621;32;34133;-68
2023/04/08 12:52:59;;;;;;;;;;;;;;;7.30;100.00;100885.91;5567737;32;34145;-68
2023/04/08 12:56:01;;;;;;;;;;;;;;;7.28;100.00;100888.66;5566577;32;34762;-68
2023/04/08 12:59:04;;;;;;;;;;;;;;;7.50;100.00;100897.34;5567726;32;34215;-68
2023/04/08 13:02:07;;;;;;;;;;;;;;;7.21;100.00;100886.72;5567212;32;34258;-67
2023/04/08 13:05:09;;;;;;;;;;;;;;;7.47;100.00;100889.69;5566318;32;34308;-70
2023/04/08 13:08:12;;;;;;;;;;;;;;;7.41;100.00;100886.59;5566508;32;34832;-67
2023/04/08 13:11:15;;;;;;;;;;;;;;;7.67;100.00;100888.75;5566353;32;33913;-68
2023/04/08 13:14:17;;;;;;;;;;;;;;;7.17;100.00;100890.56;5567528;32;34151;-68
2023/04/08 13:17:20;;;;;;;;;;;;;;;7.40;100.00;100882.31;5567211;32;33907;-68
2023/04/08 13:20:24;;;;;;;;;;;;;;;7.43;100.00;100883.84;5568051;32;33930;-69
2023/04/08 13:23:27;;;;;;;;;;;;;;;7.61;100.00;100884.00;5567984;32;33713;-67
2023/04/08 13:26:29;;;;;;;;;;;;;;;7.21;100.00;100882.25;5575782;31;34886;-67
2023/04/08 13:29:32;;;;;;;;;;;;;;;7.19;100.00;100880.72;5587752;31;33980;-68
2023/04/08 13:32:35;;;;;;;;;;;;;;;7.67;100.00;100876.38;5587836;31;34928;-68
2023/04/08 13:35:38;;;;;;;;;;;;;;;7.70;100.00;100877.91;5568524;31;34592;-68
2023/04/08 13:38:40;;;;;;;;;;;;;;;7.61;100.00;100874.28;5567950;32;34092;-68
2023/04/08 13:41:43;;;;;;;;;;;;;;;7.49;100.00;100877.19;5568076;32;33768;-69
2023/04/08 13:44:45;;;;;;;;;;;;;;;6.49;100.00;100876.19;5569886;31;34362;-68
2023/04/08 13:47:48;;;;;;;;;;;;;;;6.57;100.00;100878.22;5568147;32;34058;-68
2023/04/08 13:50:51;;;;;;;;;;;;;;;6.72;100.00;100863.72;5558984;32;34663;-69
2023/04/08 13:53:53;;;;;;;;;;;;;;;6.57;100.00;100870.31;5568009;32;34849;-69
2023/04/08 13:56:56;;;;;;;;;;;;;;;6.82;100.00;100872.53;5567919;32;34867;-68
2023/04/08 13:59:59;;;;;;;;;;;;;;;7.23;100.00;100880.31;5567787;32;33975;-68
2023/04/08 14:03:02;;;;;;;;;;;;;;;7.38;100.00;100878.97;5567837;31;34201;-69
2023/04/08 14:06:05;;;;;;;;;;;;;;;7.38;100.00;100878.97;5567647;32;34448;-68
2023/04/08 14:09:08;;;;;;;;;;;;;;;7.50;100.00;100878.88;5567495;32;34854;-69
2023/04/08 14:12:10;;;;;;;;;;;;;;;7.06;100.00;100873.03;5567662;32;33946;-68
2023/04/08 14:15:13;;;;;;;;;;;;;;;7.26;100.00;100873.94;5568016;32;34407;-67
2023/04/08 14:18:19;;;;;;;;;;;;;;;7.02;100.00;100873.44;5567552;32;34913;-68
2023/04/08 14:21:21;;;;;;;;;;;;;;;6.79;100.00;100870.97;5553493;32;34844;-68
2023/04/08 14:24:24;;;;;;;;;;;;;;;7.05;100.00;100875.81;5567795;32;34344;-67
2023/04/08 14:27:26;;;;;;;;;;;;;;;7.08;100.00;100880.81;5567903;32;34747;-68
2023/04/08 14:30:31;;;;;;;;;;;;;;;6.87;100.00;100880.87;5567478;32;34251;-67
2023/04/08 14:33:33;;;;;;;;;;;;;;;6.96;100.00;100880.91;5566948;32;34383;-68
2023/04/08 14:36:36;;;;;;;;;;;;;;;6.78;100.00;100879.84;5567812;32;34348;-68
2023/04/08 14:39:38;;;;;;;;;;;;;;;6.56;100.00;100880.00;5554278;32;34342;-68
2023/04/08 14:42:41;;;;;;;;;;;;;;;6.81;100.00;100884.87;5567424;32;34046;-68
2023/04/08 14:45:44;;;;;;;;;;;;;;;7.08;100.00;100881.63;5567562;31;34075;-68
2023/04/08 14:48:47;;;;;;;;;;;;;;;7.05;100.00;100884.56;5567452;32;34368;-68
2023/04/08 14:51:49;;;;;;;;;;;;;;;7.04;100.00;100877.59;5567834;32;34139;-67
2023/04/08 14:54:54;;;;;;;;;;;;;;;7.20;100.00;100888.50;5567315;32;34306;-67
2023/04/08 14:57:57;;;;;;;;;;;;;;;7.13;100.00;100881.25;5567302;32;34411;-67
2023/04/08 15:01:02;;;;;;;;;;;;;;;7.25;100.00;100878.38;5567403;32;34791;-67
2023/04/08 15:04:05;;;;;;;;;;;;;;;7.38;100.00;100876.34;5567117;32;34094;-68
2023/04/08 15:07:08;;;;;;;;;;;;;;;7.33;100.00;100875.06;5553171;32;34875;-67
2023/04/08 15:10:10;;;;;;;;;;;;;;;6.80;100.00;100874.44;5566684;32;34817;-67
2023/04/08 15:13:13;;;;;;;;;;;;;;;6.77;100.00;100875.56;5567035;32;34168;-68
2023/04/08 15:16:16;;;;;;;;;;;;;;;7.06;100.00;100874.84;5566809;32;34171;-67
2023/04/08 15:19:19;;;;;;;;;;;;;;;7.21;100.00;100874.31;5567404;32;34520;-68
2023/04/08 15:22:21;;;;;;;;;;;;;;;7.16;100.00;100876.56;5566890;32;34361;-68
2023/04/08 15:25:24;;;;;;;;;;;;;;;7.10;100.00;100871.81;5566902;32;34303;-68
2023/04/08 15:28:26;;;;;;;;;;;;;;;6.98;100.00;100878.13;5553148;32;34647;-68
2023/04/08 15:31:30;;;;;;;;;;;;;;;7.01;100.00;100877.87;5567029;32;33612;-68
2023/04/08 15:34:32;;;;;;;;;;;;;;;6.94;100.00;100877.56;5566793;32;33430;-68
2023/04/08 15:37:35;;;;;;;;;;;;;;;6.93;100.00;100877.69;5566858;32;34868;-68
2023/04/08 15:40:38;;;;;;;;;;;;;;;6.60;100.00;100883.22;5566434;32;34126;-69